• Join FlightAware (Why Join?)
  • Login
  • US Flag 
03:36AM EDT


 

Airport Tracker/Info


-or-


 

Live Flight TrackerFlight Track Log ✈ SWA2601 ✈ 28-Jul-2013 ✈ KLAS - KABQ

Flight Track Log - Related Links

Times and Time Zones

All times are in EDT time to prevent confusion due to time zone crossing. See the SWA2601 flight status page for this flight to view local times or setup timezone preferences in your user account.

Time Position Orientation Groundspeed Altitude Reporting Facility
EDT Latitude Longitude Course Direction KTS MPH feet Rate Location/Type
10:34PM 36.1192 -115.1381 74° East 213 245 3,600  Level Los Angeles Center
10:35PM 36.1303 -115.0892 74° East 255 293 5,500 3,060 Climbing Los Angeles Center
10:35PM 36.1342 -115.0567 82° East 242 278 7,000 2,340 Climbing Los Angeles Center
10:36PM 36.1386 -114.9692 86° East 272 313 8,700 1,740 Climbing Los Angeles Center
10:37PM 36.1500 -114.8594 83° East 289 333 10,600 2,040 Climbing Los Angeles Center
10:38PM 36.1036 -114.7308 114° Southeast 331 381 13,300 2,220 Climbing Los Angeles Center
10:39PM 36.0597 -114.6211 116° Southeast 350 403 15,300 1,860 Climbing Los Angeles Center
10:40PM 36.0142 -114.5081 116° Southeast 365 420 17,500 1,860 Climbing Los Angeles Center
10:41PM 35.9903 -114.3542 101° East 381 438 19,600 1,740 Climbing Los Angeles Center
10:43PM 35.9689 -114.2200 101° East 396 456 21,100 1,560 Climbing Los Angeles Center
10:44PM 35.9497 -114.0817 100° East 408 470 22,900 1,560 Climbing Los Angeles Center
10:45PM 35.9244 -113.9167 101° East 409 471 24,300 1,260 Climbing Los Angeles Center
10:46PM 35.9025 -113.7725 101° East 422 486 25,600 1,200 Climbing Los Angeles Center
10:47PM 35.8792 -113.6269 101° East 430 495 26,800 660 Climbing Los Angeles Center
10:48PM 35.8550 -113.4769 101° East 441 507 27,000 240 Climbing Los Angeles Center
10:49PM 35.8306 -113.3236 101° East 451 519 27,400 660 Climbing Los Angeles Center
10:50PM 35.8069 -113.1722 101° East 453 521 28,500 1,020 Climbing Los Angeles Center
10:51PM 35.7778 -112.9919 101° East 448 516 29,800 1,380 Climbing Los Angeles Center
10:52PM 35.7472 -112.8092 102° East 452 520 31,400 1,380 Climbing Los Angeles Center
10:53PM 35.7231 -112.6572 101° East 452 520 32,700 960 Climbing Los Angeles Center
10:54PM 35.6983 -112.5064 101° East 451 519 33,400 1,020 Climbing Los Angeles Center
10:55PM 35.6719 -112.3547 102° East 452 520 34,800 780 Climbing Los Angeles Center
10:56PM 35.6458 -112.2042 102° East 452 520 35,000 60 Climbing Los Angeles Center
10:57PM 35.6197 -112.0525 102° East 453 521 35,000  Level Los Angeles Center
10:58PM 35.5933 -111.8992 102° East 456 525 35,000  Level Los Angeles Center
10:59PM 35.5872 -111.7067 92° East 470 541 35,000  Level Los Angeles Center
11:00PM 35.5817 -111.5456 92° East 474 545 35,000  Level Los Angeles Center
11:01PM 35.5775 -111.3847 92° East 473 544 35,000  Level Los Angeles Center
11:03PM 35.5700 -111.1494 92° East 471 542 35,000  Level Albuquerque Center
11:04PM 35.5653 -110.9947 92° East 473 544 35,000  Level Albuquerque Center
11:05PM 35.5617 -110.8408 92° East 472 543 35,000  Level Albuquerque Center
11:06PM 35.5531 -110.6592 93° East 475 547 35,000  Level Albuquerque Center
11:07PM 35.5475 -110.5036 92° East 476 548 35,000  Level Albuquerque Center
11:08PM 35.5408 -110.3222 93° East 477 549 35,000  Level Albuquerque Center
11:09PM 35.5347 -110.1686 93° East 474 545 35,000  Level Albuquerque Center
11:10PM 35.5292 -110.0133 92° East 475 547 35,000  Level Albuquerque Center
11:11PM 35.5225 -109.8336 93° East 474 545 35,000  Level Albuquerque Center
11:12PM 35.5156 -109.6797 93° East 473 544 35,000  Level Albuquerque Center
11:13PM 35.5028 -109.5044 95° East 464 534 35,000  Level Albuquerque Center
11:14PM 35.4769 -109.3542 102° East 469 540 35,000  Level Albuquerque Center
11:15PM 35.4503 -109.1811 101° East 466 536 35,000  Level Albuquerque Center
11:16PM 35.4256 -109.0339 102° East 464 534 35,000  Level Albuquerque Center
11:17PM 35.4014 -108.8861 101° East 464 534 35,000  Level Albuquerque Center
11:18PM 35.3731 -108.7122 101° East 466 536 35,000  Level Albuquerque Center
11:19PM 35.3483 -108.5647 102° East 466 536 35,000 -600 Level Albuquerque Center
11:20PM 35.3200 -108.3878 101° East 471 542 33,800 -2,040 Descending Albuquerque Center
11:21PM 35.2953 -108.2353 101° East 478 550 30,900 -2,940 Descending Albuquerque Center
11:22PM 35.2642 -108.0594 102° East 477 549 27,800 -2,640 Descending Albuquerque Center
11:23PM 35.2389 -107.9128 102° East 467 537 25,600 -2,220 Descending Albuquerque Center
11:24PM 35.2147 -107.7717 102° East 451 519 23,400 -2,280 Descending Albuquerque Center
11:25PM 35.1822 -107.5919 102° East 429 494 20,700 -2,040 Descending Albuquerque Center
11:26PM 35.1653 -107.4822 101° East 416 479 19,300 -1,920 Descending Albuquerque Center
11:27PM 35.1389 -107.3483 104° East 393 452 17,100 -2,160 Descending Albuquerque Center
11:28PM 35.1181 -107.2267 102° East 368 423 14,900 -2,160 Descending Albuquerque Center
11:29PM 35.0964 -107.1047 102° East 366 421 12,800 -1,920 Descending Albuquerque Center
11:30PM 35.0742 -106.9883 103° East 357 411 11,000 -1,440 Descending Albuquerque Center
11:31PM 35.0422 -106.8669 108° East 325 374 9,900 -600 Descending Albuquerque Center
11:32PM 35.0108 -106.7750 113° Southeast 305 351 9,900 -360 Level Albuquerque Center
11:33PM 34.9736 -106.6925 119° Southeast 278 320 9,200 -660 Descending Albuquerque Center
11:34PM 34.9594 -106.6131 102° East 252 290 8,600 -840 Descending Albuquerque Center
11:35PM 34.9694 -106.5358 81° East 233 268 7,500 -900 Descending Albuquerque Center
11:36PM 35.0211 -106.5236 11° North 198 228 6,800 -960 Descending Albuquerque Center
11:37PM 35.0439 -106.5631 305° West 162 186 5,600 -1,200 Descending Albuquerque Center